Time;durP1;ratioP1;P1;durP2;ratioP2;P2;SDS_P1;SDS_P2;PMS_P1;PMS_P2;Temp;Humidity;BMP_temperature;BMP_pressure;BME280_temperature;BME280_humidity;BME280_pressure;Samples;Min_cycle;Max_cycle;Signal;HPM_P1;HPM_P2
2023/10/25 00:00:48;;;;;;;8.70;5.37;;;7.20;99.90;;;;;;5019659;28;20218;-66
2023/10/25 00:03:15;;;;;;;6.67;5.47;;;7.20;99.90;;;;;;5001912;28;20183;-66
2023/10/25 00:05:42;;;;;;;7.65;5.57;;;7.10;99.90;;;;;;5019513;28;20592;-66
2023/10/25 00:08:08;;;;;;;6.72;5.70;;;7.10;99.90;;;;;;5001681;28;20198;-66
2023/10/25 00:10:34;;;;;;;8.07;5.70;;;7.10;99.90;;;;;;5019684;28;20676;-67
2023/10/25 00:13:00;;;;;;;6.50;5.70;;;7.10;99.90;;;;;;5019899;28;20160;-66
2023/10/25 00:15:26;;;;;;;8.67;5.87;;;7.10;99.90;;;;;;4997901;28;20184;-66
2023/10/25 00:17:52;;;;;;;6.43;5.63;;;7.00;99.90;;;;;;5016621;28;20268;-66
2023/10/25 00:20:18;;;;;;;6.97;6.07;;;7.00;99.90;;;;;;5016542;28;20211;-66
2023/10/25 00:22:44;;;;;;;9.63;6.30;;;7.10;99.90;;;;;;5015998;28;20220;-66
2023/10/25 00:25:10;;;;;;;8.40;6.20;;;7.10;99.90;;;;;;5016224;28;20184;-66
2023/10/25 00:27:36;;;;;;;8.10;5.63;;;7.10;99.90;;;;;;5016068;28;20184;-65
2023/10/25 00:30:02;;;;;;;7.37;5.60;;;7.10;99.90;;;;;;4998475;28;20542;-65
2023/10/25 00:32:28;;;;;;;7.27;5.80;;;7.20;99.90;;;;;;5016042;28;20261;-66
2023/10/25 00:34:53;;;;;;;8.17;5.83;;;7.20;99.90;;;;;;4998308;28;20645;-66
2023/10/25 00:37:19;;;;;;;7.50;5.93;;;7.20;99.90;;;;;;5015676;28;20200;-66
2023/10/25 00:39:45;;;;;;;8.17;6.13;;;7.30;99.90;;;;;;5016228;28;20218;-66
2023/10/25 00:42:10;;;;;;;7.80;6.07;;;7.30;99.90;;;;;;5015984;28;20207;-66
2023/10/25 00:44:36;;;;;;;11.70;6.50;;;7.40;99.90;;;;;;5015994;28;20176;-66
2023/10/25 00:47:03;;;;;;;7.90;6.47;;;7.40;99.90;;;;;;5015775;28;20188;-66
2023/10/25 00:49:29;;;;;;;7.93;5.93;;;7.40;99.90;;;;;;5015998;28;20263;-66
2023/10/25 00:51:55;;;;;;;9.25;5.63;;;7.40;99.90;;;;;;4997895;28;20374;-66
2023/10/25 00:54:22;;;;;;;7.83;6.13;;;7.40;99.90;;;;;;5015602;28;20680;-66
2023/10/25 00:56:48;;;;;;;8.37;6.27;;;7.40;99.90;;;;;;5015399;28;20203;-66
2023/10/25 00:59:15;;;;;;;9.57;6.40;;;7.30;99.90;;;;;;5015732;28;20278;-66
2023/10/25 01:01:41;;;;;;;11.47;5.77;;;7.20;99.90;;;;;;5015347;28;20215;-66
2023/10/25 01:04:07;;;;;;;8.23;6.40;;;7.20;99.90;;;;;;5015712;28;20604;-65
2023/10/25 01:06:33;;;;;;;9.13;6.43;;;7.10;99.90;;;;;;5015104;28;20250;-66
2023/10/25 01:08:59;;;;;;;7.53;6.53;;;7.10;99.90;;;;;;5015316;28;20176;-66
2023/10/25 01:11:26;;;;;;;6.67;5.97;;;7.00;99.90;;;;;;5015452;28;20207;-66
2023/10/25 01:13:51;;;;;;;10.23;6.63;;;7.10;99.90;;;;;;4997671;28;20194;-66
2023/10/25 01:16:19;;;;;;;7.47;5.80;;;7.10;99.90;;;;;;5015160;28;20286;-66
2023/10/25 01:18:44;;;;;;;7.57;6.30;;;7.10;99.90;;;;;;5015168;28;20172;-66
2023/10/25 01:21:11;;;;;;;10.23;6.50;;;7.10;99.90;;;;;;4997623;28;20210;-66
2023/10/25 01:23:36;;;;;;;9.10;7.00;;;7.10;99.90;;;;;;5014829;28;20176;-66
2023/10/25 01:26:02;;;;;;;7.03;6.20;;;7.10;99.90;;;;;;5014692;28;20707;-66
2023/10/25 01:28:28;;;;;;;7.90;6.33;;;7.10;99.90;;;;;;5015279;28;20630;-66
2023/10/25 01:30:54;;;;;;;9.87;7.23;;;7.10;99.90;;;;;;5015071;28;20568;-66
2023/10/25 01:33:19;;;;;;;8.00;5.97;;;7.20;99.90;;;;;;5015395;28;20184;-66
2023/10/25 01:35:45;;;;;;;12.73;6.33;;;7.20;99.90;;;;;;5014882;28;20202;-66
2023/10/25 01:38:11;;;;;;;7.97;6.10;;;7.10;99.90;;;;;;5014567;28;20172;-66
2023/10/25 01:40:37;;;;;;;8.07;6.63;;;7.10;99.90;;;;;;5015025;28;20200;-66
2023/10/25 01:43:03;;;;;;;8.67;6.27;;;7.00;99.90;;;;;;5014731;28;20202;-66
2023/10/25 01:45:30;;;;;;;9.23;6.17;;;6.90;99.90;;;;;;4997231;28;20215;-66
2023/10/25 01:47:56;;;;;;;10.23;6.50;;;6.90;99.90;;;;;;5014665;28;20179;-66
2023/10/25 01:50:22;;;;;;;9.33;6.87;;;6.90;99.90;;;;;;4996906;28;20199;-66
2023/10/25 01:52:47;;;;;;;8.77;5.90;;;6.80;99.90;;;;;;4996649;28;20222;-66
2023/10/25 01:55:13;;;;;;;7.93;6.27;;;6.90;99.90;;;;;;5014995;28;20214;-66
2023/10/25 01:57:39;;;;;;;6.83;5.67;;;6.90;99.90;;;;;;5014384;28;20747;-66
2023/10/25 02:00:06;;;;;;;7.30;6.17;;;6.80;99.90;;;;;;5014269;28;20176;-65
2023/10/25 02:02:33;;;;;;;7.73;5.97;;;6.90;99.90;;;;;;5014416;28;20194;-66
2023/10/25 02:04:59;;;;;;;8.37;6.47;;;7.00;99.90;;;;;;5013006;28;20192;-66
2023/10/25 02:07:24;;;;;;;11.00;6.23;;;7.00;99.90;;;;;;5014012;28;20183;-66
2023/10/25 02:09:50;;;;;;;7.27;6.50;;;7.00;99.90;;;;;;5014287;28;20536;-66
2023/10/25 02:12:16;;;;;;;8.90;6.17;;;7.00;99.90;;;;;;5014264;28;20580;-66
2023/10/25 02:14:42;;;;;;;7.03;6.33;;;6.90;99.90;;;;;;5014242;28;20183;-66
2023/10/25 02:17:08;;;;;;;8.10;6.60;;;6.90;99.90;;;;;;5014047;28;20207;-66
2023/10/25 02:19:35;;;;;;;12.10;6.77;;;6.80;99.90;;;;;;5012900;28;20184;-66
2023/10/25 02:22:00;;;;;;;7.83;6.10;;;6.80;99.90;;;;;;5013789;28;20200;-66
2023/10/25 02:24:26;;;;;;;11.30;5.87;;;6.80;99.90;;;;;;5014340;28;20218;-66
2023/10/25 02:26:52;;;;;;;9.43;6.00;;;6.70;99.90;;;;;;5014410;28;20226;-66
2023/10/25 02:29:18;;;;;;;8.50;6.37;;;6.80;99.90;;;;;;5013815;28;20230;-66
2023/10/25 02:31:44;;;;;;;9.10;6.30;;;6.80;99.90;;;;;;5013714;28;20287;-66
2023/10/25 02:34:10;;;;;;;10.83;6.47;;;6.90;99.90;;;;;;5014173;28;20242;-65
2023/10/25 02:36:36;;;;;;;8.03;6.30;;;6.90;99.90;;;;;;5013728;28;20203;-66
2023/10/25 02:39:02;;;;;;;6.50;5.80;;;6.90;99.90;;;;;;5012943;28;20175;-66
2023/10/25 02:41:27;;;;;;;9.43;6.67;;;6.80;99.90;;;;;;5012305;28;20238;-66
2023/10/25 02:43:56;;;;;;;8.87;6.30;;;6.70;99.90;;;;;;5014348;28;20179;-66
2023/10/25 02:46:23;;;;;;;8.17;6.33;;;6.70;99.90;;;;;;5013462;28;20179;-66
2023/10/25 02:48:52;;;;;;;9.33;5.60;;;6.60;99.90;;;;;;5013792;28;20238;-66
2023/10/25 02:51:18;;;;;;;8.83;6.63;;;6.60;99.90;;;;;;5013425;28;20230;-66
2023/10/25 02:53:44;;;;;;;7.60;6.60;;;6.70;99.90;;;;;;5013241;28;20180;-66
2023/10/25 02:56:10;;;;;;;8.00;6.70;;;6.70;99.90;;;;;;5013413;28;20203;-66
2023/10/25 02:58:35;;;;;;;8.80;6.47;;;6.60;99.90;;;;;;5013696;28;20187;-66
2023/10/25 03:01:01;;;;;;;8.23;6.63;;;6.60;99.90;;;;;;5013245;28;20207;-66
2023/10/25 03:03:32;;;;;;;9.90;6.10;;;6.50;99.90;;;;;;4995776;28;20187;-66
2023/10/25 03:05:58;;;;;;;9.40;6.47;;;6.50;99.90;;;;;;4995749;28;20278;-66
2023/10/25 03:08:26;;;;;;;8.13;6.43;;;6.50;99.90;;;;;;5013217;28;20655;-65
2023/10/25 03:10:51;;;;;;;9.10;6.37;;;6.50;99.90;;;;;;5013406;28;20218;-65
2023/10/25 03:13:18;;;;;;;9.87;6.87;;;6.50;99.90;;;;;;5013534;28;20629;-65
2023/10/25 03:15:44;;;;;;;9.33;6.23;;;6.40;99.90;;;;;;5013429;28;20175;-65
2023/10/25 03:18:10;;;;;;;6.87;6.20;;;6.40;99.90;;;;;;5013223;28;20187;-65
2023/10/25 03:20:35;;;;;;;10.60;6.33;;;6.30;99.90;;;;;;5013117;28;20191;-65
2023/10/25 03:23:01;;;;;;;9.30;6.53;;;6.30;99.90;;;;;;5013136;28;20641;-66
2023/10/25 03:25:27;;;;;;;7.53;6.33;;;6.10;99.90;;;;;;5013171;28;20620;-65
2023/10/25 03:27:53;;;;;;;7.67;6.00;;;6.20;99.90;;;;;;5013118;28;20176;-65
2023/10/25 03:30:19;;;;;;;6.50;5.90;;;6.10;99.90;;;;;;5013315;28;20618;-66
2023/10/25 03:32:45;;;;;;;8.10;6.13;;;6.20;99.90;;;;;;4995529;28;20192;-65
2023/10/25 03:35:11;;;;;;;6.47;5.87;;;6.30;99.90;;;;;;5013266;28;20708;-65
2023/10/25 03:37:39;;;;;;;7.93;6.33;;;6.30;99.90;;;;;;4995150;28;20242;-65
2023/10/25 03:40:10;;;;;;;7.80;6.60;;;6.40;99.90;;;;;;5013035;28;20230;-65
2023/10/25 03:42:37;;;;;;;6.30;5.70;;;6.30;99.90;;;;;;5013289;28;20544;-65
2023/10/25 03:45:06;;;;;;;9.83;5.83;;;6.30;99.90;;;;;;5012958;28;20176;-66
2023/10/25 03:47:34;;;;;;;6.97;6.03;;;6.20;99.90;;;;;;4995364;28;20188;-66
2023/10/25 03:50:01;;;;;;;7.10;5.90;;;6.20;99.90;;;;;;4998297;28;20271;-66
2023/10/25 03:52:28;;;;;;;7.40;6.27;;;6.10;99.90;;;;;;5016384;28;20404;-66
2023/10/25 03:54:53;;;;;;;8.60;6.47;;;6.10;99.90;;;;;;5016565;28;20196;-65
2023/10/25 03:57:19;;;;;;;7.87;5.83;;;6.10;99.90;;;;;;5016449;28;20297;-66
2023/10/25 03:59:45;;;;;;;7.83;6.07;;;6.10;99.90;;;;;;4998889;28;20198;-66
2023/10/25 04:02:11;;;;;;;6.90;6.20;;;6.10;99.90;;;;;;5016311;28;20352;-66
2023/10/25 04:04:36;;;;;;;7.10;5.87;;;6.10;99.90;;;;;;5016306;28;20283;-66
2023/10/25 04:07:02;;;;;;;6.40;5.73;;;6.00;99.90;;;;;;4998518;28;20246;-65
2023/10/25 04:09:28;;;;;;;6.77;6.07;;;6.00;99.90;;;;;;5016322;28;20653;-65
2023/10/25 04:11:53;;;;;;;6.13;5.53;;;6.00;99.90;;;;;;4998676;28;20207;-66
2023/10/25 04:14:19;;;;;;;6.77;6.17;;;6.00;99.90;;;;;;5016286;28;20191;-66
2023/10/25 04:16:45;;;;;;;7.20;6.30;;;6.00;99.90;;;;;;4998579;28;20211;-66
2023/10/25 04:19:11;;;;;;;7.87;6.13;;;5.90;99.90;;;;;;5016171;28;20184;-66
2023/10/25 04:21:37;;;;;;;9.97;5.50;;;5.80;99.90;;;;;;5016111;28;20200;-66
2023/10/25 04:24:04;;;;;;;7.53;5.97;;;5.80;99.90;;;;;;5015900;28;20574;-67
2023/10/25 04:26:29;;;;;;;7.10;6.27;;;5.70;99.90;;;;;;5016121;28;20263;-65
2023/10/25 04:28:55;;;;;;;6.60;6.00;;;5.70;99.90;;;;;;5016125;28;20270;-65
2023/10/25 04:31:21;;;;;;;6.43;5.83;;;5.80;99.90;;;;;;5015943;28;20599;-65
2023/10/25 04:33:49;;;;;;;7.43;6.67;;;5.80;99.90;;;;;;5015864;28;20701;-65
2023/10/25 04:36:15;;;;;;;6.83;6.13;;;5.80;99.90;;;;;;5015696;28;20211;-65
2023/10/25 04:38:42;;;;;;;6.97;6.27;;;5.80;99.90;;;;;;5015508;28;20180;-65
2023/10/25 04:41:07;;;;;;;8.13;7.03;;;5.80;99.90;;;;;;5015749;28;20238;-65
2023/10/25 04:43:33;;;;;;;7.37;6.67;;;5.70;99.90;;;;;;5015779;28;20199;-65
2023/10/25 04:46:00;;;;;;;7.17;6.00;;;5.70;99.90;;;;;;5016238;28;20179;-65
2023/10/25 04:48:26;;;;;;;6.97;6.13;;;5.60;99.90;;;;;;5015684;28;20668;-65
2023/10/25 04:50:51;;;;;;;8.07;6.33;;;5.60;99.90;;;;;;5015686;28;20223;-65
2023/10/25 04:53:17;;;;;;;10.13;6.70;;;5.60;99.90;;;;;;5015509;28;20207;-65
2023/10/25 04:55:46;;;;;;;7.73;6.37;;;5.60;99.90;;;;;;5015468;28;20248;-65
2023/10/25 04:58:12;;;;;;;7.07;6.37;;;5.60;99.90;;;;;;5015359;28;20203;-65
2023/10/25 05:00:38;;;;;;;7.60;6.43;;;5.60;99.90;;;;;;5014413;28;20298;-65
2023/10/25 05:03:10;;;;;;;7.73;7.03;;;5.70;99.90;;;;;;5015466;28;20176;-65
2023/10/25 05:05:40;;;;;;;7.30;6.60;;;5.70;99.90;;;;;;5015391;28;20707;-65
2023/10/25 05:08:09;;;;;;;10.90;6.60;;;5.70;99.90;;;;;;5014957;28;20167;-65
2023/10/25 05:10:35;;;;;;;8.03;6.97;;;5.80;99.90;;;;;;5015545;28;20191;-65
2023/10/25 05:13:01;;;;;;;8.93;6.43;;;5.80;99.90;;;;;;5015197;28;20203;-65
2023/10/25 05:15:28;;;;;;;7.70;6.90;;;5.90;99.90;;;;;;5015138;28;20234;-65
2023/10/25 05:17:54;;;;;;;8.70;6.83;;;5.90;99.90;;;;;;5015119;28;20203;-65
2023/10/25 05:20:20;;;;;;;9.63;7.50;;;6.00;99.90;;;;;;4997365;28;20207;-65
2023/10/25 05:22:50;;;;;;;7.57;6.83;;;6.10;99.90;;;;;;5014940;28;20176;-65
2023/10/25 05:25:16;;;;;;;7.17;6.43;;;6.10;99.90;;;;;;4997410;28;20218;-65
2023/10/25 05:27:42;;;;;;;10.43;7.10;;;6.20;99.90;;;;;;5014834;28;20207;-65
2023/10/25 05:30:09;;;;;;;14.23;7.50;;;6.30;99.90;;;;;;5015199;28;20639;-65
2023/10/25 05:32:37;;;;;;;11.60;7.10;;;6.30;99.90;;;;;;5014836;28;20172;-65
2023/10/25 05:35:05;;;;;;;8.90;6.50;;;6.40;99.90;;;;;;4997110;28;20187;-65
2023/10/25 05:37:31;;;;;;;10.63;7.43;;;6.50;99.90;;;;;;4996807;28;20295;-65
2023/10/25 05:39:57;;;;;;;9.17;7.93;;;6.50;99.90;;;;;;5014646;28;20176;-65
2023/10/25 05:42:24;;;;;;;12.87;7.83;;;6.60;99.90;;;;;;5014482;28;20195;-65
2023/10/25 05:44:56;;;;;;;10.47;7.50;;;6.60;99.90;;;;;;5014576;28;20168;-65
2023/10/25 05:47:26;;;;;;;9.80;6.97;;;6.60;99.90;;;;;;5014578;28;20160;-65
2023/10/25 05:49:53;;;;;;;11.33;7.90;;;6.60;99.90;;;;;;4996846;28;20180;-65
2023/10/25 05:52:20;;;;;;;9.20;7.47;;;6.70;99.90;;;;;;4996956;28;20196;-65
2023/10/25 05:54:46;;;;;;;13.07;8.60;;;6.70;99.90;;;;;;4996747;28;20183;-65
2023/10/25 05:57:13;;;;;;;10.80;8.40;;;6.70;99.90;;;;;;4996855;28;20545;-65
2023/10/25 05:59:39;;;;;;;9.90;8.17;;;6.70;99.90;;;;;;5014227;28;20187;-65
2023/10/25 06:02:17;;;;;;;15.50;8.73;;;6.70;99.90;;;;;;5013995;28;20208;-65
2023/10/25 06:04:44;;;;;;;9.40;7.20;;;6.70;99.90;;;;;;5014081;28;20680;-65
2023/10/25 06:07:11;;;;;;;8.87;7.60;;;6.70;99.90;;;;;;5014069;28;20549;-65
2023/10/25 06:09:38;;;;;;;12.07;8.57;;;6.80;99.90;;;;;;5013912;28;20167;-65
2023/10/25 06:12:04;;;;;;;10.70;8.00;;;6.70;99.90;;;;;;5013492;28;20222;-65
2023/10/25 06:14:31;;;;;;;12.20;8.40;;;6.80;99.90;;;;;;4996484;28;20188;-65
2023/10/25 06:17:00;;;;;;;11.77;8.80;;;6.80;99.90;;;;;;4996438;28;20207;-65
2023/10/25 06:19:27;;;;;;;10.47;8.67;;;6.80;99.90;;;;;;5014332;28;20538;-66
2023/10/25 06:21:53;;;;;;;10.20;7.87;;;6.90;99.90;;;;;;5014004;28;20188;-65
2023/10/25 06:24:19;;;;;;;11.23;8.93;;;6.90;99.90;;;;;;5013582;28;20163;-65
2023/10/25 06:26:45;;;;;;;11.83;8.73;;;6.90;99.90;;;;;;5014119;28;20703;-65
2023/10/25 06:29:11;;;;;;;8.33;7.40;;;6.90;99.90;;;;;;4996323;28;20191;-65
2023/10/25 06:31:37;;;;;;;12.97;8.17;;;7.00;99.90;;;;;;4996179;28;20203;-65
2023/10/25 06:34:03;;;;;;;9.00;8.03;;;7.00;99.90;;;;;;5013763;28;20176;-66
2023/10/25 06:36:30;;;;;;;9.50;8.30;;;7.00;99.90;;;;;;5013723;28;20657;-65
2023/10/25 06:38:56;;;;;;;13.10;8.70;;;7.10;99.90;;;;;;5013567;28;20540;-65
2023/10/25 06:41:23;;;;;;;12.10;9.50;;;7.10;99.90;;;;;;5013928;28;20188;-65
2023/10/25 06:43:49;;;;;;;9.93;8.60;;;7.20;99.90;;;;;;5013937;28;20274;-65
2023/10/25 06:46:15;;;;;;;11.60;9.10;;;7.30;99.90;;;;;;5013648;28;20168;-65
2023/10/25 06:48:41;;;;;;;10.53;8.77;;;7.30;99.90;;;;;;5013666;28;20233;-65
2023/10/25 06:51:08;;;;;;;11.43;8.97;;;7.30;99.90;;;;;;4995900;28;20623;-65
2023/10/25 06:53:38;;;;;;;11.37;8.90;;;7.40;99.90;;;;;;5013233;28;20182;-65
2023/10/25 06:56:05;;;;;;;12.37;8.47;;;7.40;99.90;;;;;;4995952;28;20179;-65
2023/10/25 06:58:31;;;;;;;13.77;8.70;;;7.50;99.90;;;;;;4995810;28;20192;-65
2023/10/25 07:00:58;;;;;;;11.17;8.77;;;7.50;99.90;;;;;;5013270;28;20217;-65
2023/10/25 07:03:36;;;;;;;14.57;9.97;;;7.50;99.90;;;;;;5013306;28;20178;-65
2023/10/25 07:06:04;;;;;;;15.23;9.80;;;7.60;99.90;;;;;;5013260;28;20179;-65
2023/10/25 07:08:33;;;;;;;12.60;9.07;;;7.60;99.90;;;;;;5013160;28;20166;-65
2023/10/25 07:10:59;;;;;;;10.73;9.13;;;7.60;99.90;;;;;;5013301;28;20274;-66
2023/10/25 07:13:26;;;;;;;12.57;10.03;;;7.70;99.90;;;;;;4995796;28;20211;-66
2023/10/25 07:15:53;;;;;;;19.73;11.17;;;7.80;99.90;;;;;;5013280;28;20179;-66
2023/10/25 07:18:19;;;;;;;18.50;11.47;;;7.80;99.90;;;;;;5013507;28;20164;-66
2023/10/25 07:20:44;;;;;;;18.27;11.43;;;7.90;99.90;;;;;;5013175;28;20198;-66
2023/10/25 07:23:10;;;;;;;15.77;11.97;;;8.00;99.90;;;;;;5013159;28;20172;-65
2023/10/25 07:25:38;;;;;;;18.70;12.33;;;8.00;99.90;;;;;;5018102;28;20168;-65
2023/10/25 07:28:04;;;;;;;15.47;11.70;;;8.10;99.90;;;;;;4999696;28;20563;-65
2023/10/25 07:30:31;;;;;;;15.83;11.83;;;8.10;99.90;;;;;;5017089;28;20199;-65
2023/10/25 07:32:56;;;;;;;17.50;12.67;;;8.20;99.90;;;;;;5017479;28;20264;-65
2023/10/25 07:35:22;;;;;;;19.67;12.03;;;8.20;99.90;;;;;;5017027;28;20187;-65
2023/10/25 07:37:48;;;;;;;16.80;12.47;;;8.30;99.90;;;;;;4999081;28;20203;-65
2023/10/25 07:40:14;;;;;;;13.77;10.63;;;8.30;99.90;;;;;;5017209;28;20183;-66
2023/10/25 07:42:39;;;;;;;14.23;10.90;;;8.40;99.90;;;;;;5017251;28;20168;-66
2023/10/25 07:45:06;;;;;;;11.97;9.20;;;8.50;99.90;;;;;;5016810;28;20238;-65
2023/10/25 07:47:32;;;;;;;15.00;10.97;;;8.50;99.90;;;;;;5016840;28;20182;-66
2023/10/25 07:49:58;;;;;;;12.47;10.23;;;8.60;99.90;;;;;;5016964;28;20612;-66
2023/10/25 07:52:27;;;;;;;11.40;10.13;;;8.70;99.90;;;;;;5016664;28;20256;-66
2023/10/25 07:54:54;;;;;;;14.67;10.63;;;8.90;99.90;;;;;;5016479;28;20665;-66
2023/10/25 07:57:19;;;;;;;10.87;9.23;;;9.10;99.90;;;;;;5016734;28;20206;-66
2023/10/25 07:59:45;;;;;;;10.93;9.18;;;9.30;99.90;;;;;;4999284;28;20282;-66
2023/10/25 08:02:11;;;;;;;10.65;9.00;;;9.40;99.90;;;;;;5016267;28;20629;-66
2023/10/25 08:04:37;;;;;;;9.50;8.00;;;9.50;99.90;;;;;;4998826;28;20282;-66
2023/10/25 08:07:03;;;;;;;12.20;7.85;;;9.60;99.90;;;;;;5016458;28;20215;-66
2023/10/25 08:09:30;;;;;;;9.40;8.27;;;9.80;99.90;;;;;;5016210;28;20706;-66
2023/10/25 08:11:55;;;;;;;8.80;7.57;;;10.00;99.90;;;;;;5016893;28;20191;-66
2023/10/25 08:14:21;;;;;;;11.27;7.22;;;10.00;99.90;;;;;;5016270;28;20672;-66
2023/10/25 08:16:47;;;;;;;10.02;8.18;;;10.10;99.90;;;;;;5016554;28;20731;-66
2023/10/25 08:19:15;;;;;;;8.02;7.22;;;10.10;99.90;;;;;;5016223;28;20249;-66
2023/10/25 08:21:41;;;;;;;10.57;6.82;;;10.20;99.90;;;;;;5016110;28;20684;-66
2023/10/25 08:24:07;;;;;;;9.23;6.75;;;10.20;99.90;;;;;;5016101;28;20179;-66
2023/10/25 08:26:39;;;;;;;7.50;6.47;;;10.20;99.90;;;;;;5016670;28;20160;-66
2023/10/25 08:29:06;;;;;;;12.57;6.03;;;10.30;99.90;;;;;;4998399;28;20210;-66
2023/10/25 08:31:33;;;;;;;6.00;5.30;;;10.40;99.90;;;;;;4998229;28;20200;-66
2023/10/25 08:33:59;;;;;;;10.65;5.28;;;10.40;99.90;;;;;;5015924;28;20183;-65
2023/10/25 08:36:25;;;;;;;6.40;4.65;;;10.40;99.90;;;;;;5015450;28;20259;-66
2023/10/25 08:38:53;;;;;;;7.63;5.05;;;10.40;99.90;;;;;;5016060;28;20176;-66
2023/10/25 08:41:19;;;;;;;5.50;4.60;;;10.40;99.90;;;;;;5016207;28;20187;-66
2023/10/25 08:43:46;;;;;;;5.25;4.75;;;10.40;99.90;;;;;;5016025;28;20711;-66
2023/10/25 08:46:14;;;;;;;5.13;4.55;;;10.40;99.90;;;;;;5016479;28;20200;-66
2023/10/25 08:48:40;;;;;;;7.05;4.90;;;10.40;99.90;;;;;;5015838;28;20259;-66
2023/10/25 08:51:08;;;;;;;5.50;4.00;;;10.40;99.90;;;;;;5015557;28;20211;-66
2023/10/25 08:53:35;;;;;;;6.45;4.25;;;10.40;99.90;;;;;;5015266;28;20194;-66
2023/10/25 08:56:01;;;;;;;4.60;4.18;;;10.40;99.90;;;;;;5015991;28;20175;-66
2023/10/25 08:58:27;;;;;;;6.00;5.03;;;10.50;99.90;;;;;;5015438;28;20180;-66
2023/10/25 09:00:56;;;;;;;5.00;4.15;;;10.50;99.90;;;;;;5015416;28;20270;-66
2023/10/25 09:03:41;;;;;;;8.70;3.95;;;10.60;99.90;;;;;;4997957;28;20233;-65
2023/10/25 09:06:09;;;;;;;8.77;4.07;;;10.60;99.90;;;;;;5015451;28;20346;-66
2023/10/25 09:08:35;;;;;;;4.05;3.70;;;10.60;99.90;;;;;;5015324;28;20182;-66
2023/10/25 09:11:08;;;;;;;5.90;3.63;;;10.70;99.90;;;;;;5015309;28;20214;-65
2023/10/25 09:13:36;;;;;;;6.80;3.50;;;10.80;99.90;;;;;;5016374;28;20172;-65
2023/10/25 09:16:07;;;;;;;4.75;3.83;;;11.00;99.90;;;;;;5015068;28;20172;-66
2023/10/25 09:18:35;;;;;;;6.35;3.45;;;11.10;99.90;;;;;;5015199;28;20179;-66
2023/10/25 09:21:02;;;;;;;4.00;3.60;;;11.20;99.90;;;;;;5015060;28;20672;-66
2023/10/25 09:23:28;;;;;;;7.63;3.55;;;11.20;99.90;;;;;;5014783;28;20667;-65
2023/10/25 09:25:58;;;;;;;6.05;3.78;;;11.20;99.90;;;;;;5015018;28;20179;-65
2023/10/25 09:28:30;;;;;;;3.88;3.13;;;11.10;99.90;;;;;;5014958;28;20176;-65
2023/10/25 09:30:58;;;;;;;4.18;3.08;;;11.10;99.90;;;;;;5014887;28;20215;-65
2023/10/25 09:33:25;;;;;;;5.18;3.28;;;11.20;99.90;;;;;;4997250;28;20184;-65
2023/10/25 09:35:52;;;;;;;6.75;3.42;;;11.20;99.90;;;;;;5014840;28;20656;-65
2023/10/25 09:38:17;;;;;;;6.22;3.50;;;11.20;99.90;;;;;;5014248;28;20437;-65
2023/10/25 09:40:45;;;;;;;4.57;3.50;;;11.20;99.90;;;;;;4997246;28;20192;-66
2023/10/25 09:43:20;;;;;;;4.70;3.10;;;11.20;99.90;;;;;;5014613;28;20181;-65
2023/10/25 09:45:53;;;;;;;3.38;3.08;;;11.20;99.90;;;;;;5014772;28;20156;-65
2023/10/25 09:48:20;;;;;;;4.00;3.30;;;11.10;99.90;;;;;;5014294;28;20184;-66
2023/10/25 09:50:58;;;;;;;6.38;3.80;;;11.10;99.90;;;;;;5014471;28;20630;-65
2023/10/25 09:53:32;;;;;;;4.03;3.63;;;11.10;99.90;;;;;;4996589;28;20596;-65
2023/10/25 09:56:03;;;;;;;4.60;3.15;;;11.20;99.90;;;;;;5014849;28;20167;-65
2023/10/25 09:58:34;;;;;;;6.35;3.67;;;11.10;99.90;;;;;;4996832;28;20242;-65
2023/10/25 10:01:03;;;;;;;3.85;3.45;;;11.20;99.90;;;;;;5014558;28;20214;-65
2023/10/25 10:03:34;;;;;;;5.70;3.42;;;11.20;99.90;;;;;;5014237;28;20174;-65
2023/10/25 10:06:12;;;;;;;5.05;3.33;;;11.20;99.90;;;;;;5014196;28;20187;-66
2023/10/25 10:08:56;;;;;;;8.18;3.85;;;11.20;99.90;;;;;;5014227;28;20251;-65
2023/10/25 10:11:27;;;;;;;5.53;3.45;;;11.20;99.90;;;;;;4996450;28;20204;-65
2023/10/25 10:14:28;;;;;;;5.45;3.55;;;11.10;99.90;;;;;;5014478;28;20693;-65
2023/10/25 10:17:12;;;;;;;8.73;4.03;;;11.10;99.90;;;;;;4996383;28;20234;-66
2023/10/25 10:19:42;;;;;;;4.55;3.80;;;11.10;99.90;;;;;;5014626;28;20170;-65
2023/10/25 10:22:11;;;;;;;4.90;3.10;;;11.10;99.90;;;;;;4996318;28;20200;-66
2023/10/25 10:24:48;;;;;;;4.32;3.92;;;11.10;99.90;;;;;;5013641;28;20168;-66
2023/10/25 10:27:25;;;;;;;5.13;3.75;;;11.10;99.90;;;;;;5013926;28;20156;-66
2023/10/25 10:29:51;;;;;;;3.67;3.30;;;11.10;99.90;;;;;;5013876;28;20179;-65
2023/10/25 10:32:18;;;;;;;4.93;3.60;;;11.10;99.90;;;;;;5013837;28;20727;-65
2023/10/25 10:34:57;;;;;;;7.65;3.65;;;11.00;99.90;;;;;;4996091;28;20676;-65
2023/10/25 10:37:26;;;;;;;5.25;3.65;;;11.00;99.90;;;;;;5013623;28;20207;-65
2023/10/25 10:39:57;;;;;;;7.93;3.40;;;11.00;99.90;;;;;;4995862;28;20176;-65
2023/10/25 10:42:29;;;;;;;3.53;3.22;;;11.00;99.90;;;;;;5013622;28;20736;-66
2023/10/25 10:44:56;;;;;;;6.80;3.80;;;11.00;99.90;;;;;;4996036;28;20171;-66
2023/10/25 10:47:28;;;;;;;8.10;3.78;;;10.90;99.90;;;;;;5013647;28;20175;-65
2023/10/25 10:50:01;;;;;;;4.07;3.20;;;10.90;99.90;;;;;;5014149;28;20243;-66
2023/10/25 10:52:27;;;;;;;5.95;3.78;;;10.90;99.90;;;;;;5013669;28;20172;-65
2023/10/25 10:54:52;;;;;;;11.30;3.97;;;10.90;99.90;;;;;;5013438;28;20377;-66
2023/10/25 10:57:20;;;;;;;4.88;3.40;;;10.90;99.90;;;;;;5013422;28;20211;-66
2023/10/25 10:59:46;;;;;;;6.68;3.83;;;10.90;99.90;;;;;;5012894;28;20656;-65
2023/10/25 11:02:13;;;;;;;5.32;3.67;;;10.90;99.90;;;;;;5013327;28;20294;-66
2023/10/25 11:04:42;;;;;;;4.13;3.72;;;10.90;99.90;;;;;;5013344;28;20187;-65
2023/10/25 11:07:08;;;;;;;8.20;3.53;;;10.90;99.90;;;;;;5013698;28;20196;-65
2023/10/25 11:09:33;;;;;;;5.97;3.45;;;10.90;99.90;;;;;;5013022;28;20175;-65
2023/10/25 11:12:08;;;;;;;3.50;3.20;;;10.90;99.90;;;;;;5013234;28;20627;-65
2023/10/25 11:14:44;;;;;;;5.95;3.60;;;10.90;99.90;;;;;;5013355;28;20171;-65
2023/10/25 11:17:11;;;;;;;4.55;3.72;;;10.90;99.90;;;;;;5013147;28;20196;-66
2023/10/25 11:19:37;;;;;;;4.85;3.60;;;10.90;99.90;;;;;;5014017;28;20175;-66
2023/10/25 11:22:03;;;;;;;5.57;3.53;;;10.90;99.90;;;;;;5013721;28;20183;-66
2023/10/25 11:24:29;;;;;;;6.00;3.75;;;10.90;99.90;;;;;;5013075;28;20703;-66
2023/10/25 11:26:56;;;;;;;6.05;3.42;;;10.90;99.90;;;;;;5013183;28;20660;-66
2023/10/25 11:29:22;;;;;;;4.20;3.80;;;11.00;99.90;;;;;;5013165;28;20190;-65
2023/10/25 11:31:50;;;;;;;4.43;3.38;;;11.00;99.90;;;;;;5013119;28;20226;-65
2023/10/25 11:34:19;;;;;;;4.20;3.50;;;11.00;99.90;;;;;;5013375;28;20668;-65
2023/10/25 11:36:47;;;;;;;6.65;3.70;;;11.00;99.90;;;;;;4995466;28;20242;-66
2023/10/25 11:39:13;;;;;;;4.78;3.90;;;11.00;99.90;;;;;;5012813;28;20218;-66
2023/10/25 11:41:39;;;;;;;4.28;3.70;;;11.00;99.90;;;;;;4995529;28;20191;-65
2023/10/25 11:44:06;;;;;;;4.50;3.75;;;11.00;99.90;;;;;;5013049;28;20179;-65
2023/10/25 11:46:41;;;;;;;10.75;4.38;;;11.10;99.90;;;;;;5013039;28;20172;-65
2023/10/25 11:49:07;;;;;;;7.78;3.95;;;11.00;99.90;;;;;;5013000;28;20246;-66
2023/10/25 11:51:35;;;;;;;5.65;4.35;;;11.00;99.90;;;;;;5012982;28;20196;-65
2023/10/25 11:54:02;;;;;;;5.03;4.15;;;11.00;99.90;;;;;;5012960;28;20176;-65
2023/10/25 11:56:28;;;;;;;6.38;4.57;;;11.00;99.90;;;;;;4995261;28;20258;-65
2023/10/25 11:58:54;;;;;;;5.57;4.20;;;11.00;99.90;;;;;;4995217;28;20553;-65
2023/10/25 12:01:20;;;;;;;5.80;4.18;;;11.00;99.90;;;;;;5012682;28;20211;-66
2023/10/25 12:03:46;;;;;;;7.80;5.30;;;10.90;99.90;;;;;;5012890;28;20172;-66
2023/10/25 12:06:12;;;;;;;5.88;4.50;;;10.90;99.90;;;;;;5012812;28;20187;-66
2023/10/25 12:08:41;;;;;;;8.60;4.78;;;10.80;99.90;;;;;;5012477;28;20208;-65
2023/10/25 12:11:11;;;;;;;5.68;4.90;;;10.80;99.90;;;;;;5015798;28;20188;-65
2023/10/25 12:13:39;;;;;;;6.43;4.78;;;10.80;99.90;;;;;;5016291;28;20252;-65
2023/10/25 12:16:05;;;;;;;5.82;4.30;;;10.70;99.90;;;;;;5016782;28;20203;-65
2023/10/25 12:18:33;;;;;;;7.65;4.90;;;10.70;99.90;;;;;;4998669;28;20175;-65
2023/10/25 12:21:07;;;;;;;6.35;4.72;;;10.70;99.90;;;;;;5016355;28;20195;-65
2023/10/25 12:23:34;;;;;;;9.05;5.05;;;10.60;99.90;;;;;;5015939;28;20173;-65
2023/10/25 12:26:00;;;;;;;8.02;4.88;;;10.60;99.90;;;;;;4998580;28;20176;-65
2023/10/25 12:28:26;;;;;;;7.43;5.05;;;10.60;99.90;;;;;;5016092;28;20270;-66
2023/10/25 12:30:53;;;;;;;7.53;5.35;;;10.60;99.90;;;;;;5016064;28;20199;-65
2023/10/25 12:33:19;;;;;;;6.13;5.05;;;10.60;99.90;;;;;;4998282;28;20247;-65
2023/10/25 12:35:45;;;;;;;7.97;5.53;;;10.50;99.90;;;;;;4998321;28;20192;-65
2023/10/25 12:38:11;;;;;;;9.40;5.60;;;10.50;99.90;;;;;;4998841;28;20688;-65
2023/10/25 12:40:36;;;;;;;6.90;5.38;;;10.40;99.90;;;;;;5015600;28;20222;-65
2023/10/25 12:43:02;;;;;;;7.07;4.93;;;10.40;99.90;;;;;;5016615;28;20183;-65
2023/10/25 12:45:29;;;;;;;7.47;5.20;;;10.40;99.90;;;;;;5015805;28;20315;-65
2023/10/25 12:47:54;;;;;;;9.40;5.35;;;10.40;99.90;;;;;;5016033;28;20538;-65
2023/10/25 12:50:20;;;;;;;9.43;5.00;;;10.40;99.90;;;;;;5015851;28;20207;-65